Back to Top

Language: 

My Weather Underground Personal Weather Station Historical Data with Graphs...

Delerius Weather Station Historical Data
Daily Summary for April 6, 2017 Units:  Metric    English   Both
« Previous Day
Next Day »
Daily Weekly Monthly Yearly Custom
  High: Low: Average:
Temperature: 12.7 °C 2.3 °C 8 °C
Dew Point: 6.8 °C 1.3 °C 4.6 °C
Humidity: 97 % 65 % 80 %
Wind Speed: 22.5 km/h 0 km/h 9.2 km/h
Wind Gust: 38.6 km/h - -
Wind:- - WNW
Pressure: 1031.7 hPa 1028 hPa -
Precipitation: 0 mm    
Historical Graphs
 
 
Tabular Data for April 6, 2017
Time Temperature Dew Point Pressure Wind Wind Speed Wind Gust Humidity Rainfall Rate (Hourly) solar Conditions
00:02 6.7 °C 4.3 °C 1031.7 hPa Calm   6.4 km/h 85 % 0 mm 0 W/m2
00:07 6.6 °C 4.3 °C 1031.7 hPa West 1.6 km/h 6.4 km/h 85 % 0 mm 0 W/m2
00:12 6.4 °C 4.2 °C 1031.7 hPa West 1.6 km/h 6.4 km/h 86 % 0 mm 0 W/m2
00:17 6.3 °C 3.9 °C 1031.7 hPa Calm   4.8 km/h 85 % 0 mm 0 W/m2
00:22 6.2 °C 4.1 °C 1031.7 hPa Calm   3.2 km/h 86 % 0 mm 0 W/m2
00:27 6.1 °C 3.9 °C 1031.7 hPa West 1.6 km/h 3.2 km/h 86 % 0 mm 0 W/m2
00:32 5.9 °C 3.7 °C 1031.7 hPa Calm   3.2 km/h 86 % 0 mm 0 W/m2
00:38 5.8 °C 3.6 °C 1031.7 hPa Calm   1.6 km/h 86 % 0 mm 0 W/m2
00:43 5.7 °C 3.7 °C 1031.7 hPa Calm   1.6 km/h 87 % 0 mm 0 W/m2
00:48 5.6 °C 3.6 °C 1031.7 hPa Calm   1.6 km/h 87 % 0 mm 0 W/m2
00:53 5.4 °C 3.4 °C 1031.7 hPa Calm   1.6 km/h 87 % 0 mm 0 W/m2
00:58 5.3 °C 3.3 °C 1031.4 hPa West 1.6 km/h 6.4 km/h 87 % 0 mm 0 W/m2
01:03 5.3 °C 3.5 °C 1031.7 hPa Calm   6.4 km/h 88 % 0 mm 0 W/m2
01:08 5.2 °C 3.4 °C 1031.4 hPa Calm   1.6 km/h 88 % 0 mm 0 W/m2
01:13 5.2 °C 3.4 °C 1031.4 hPa Calm   1.6 km/h 88 % 0 mm 0 W/m2
01:18 5.1 °C 3.3 °C 1031.7 hPa Calm     88 % 0 mm 0 W/m2
01:23 5 °C 3.2 °C 1031.7 hPa Calm   1.6 km/h 88 % 0 mm 0 W/m2
01:28 4.9 °C 3.2 °C 1031.4 hPa Calm   1.6 km/h 89 % 0 mm 0 W/m2
01:33 4.9 °C 3.2 °C 1031.4 hPa Calm   1.6 km/h 89 % 0 mm 0 W/m2
01:38 4.8 °C 3.2 °C 1031.4 hPa Calm   1.6 km/h 89 % 0 mm 0 W/m2
01:43 4.7 °C 3.1 °C 1031.4 hPa Calm     89 % 0 mm 0 W/m2
01:48 4.6 °C 2.9 °C 1031.4 hPa Calm     89 % 0 mm 0 W/m2
01:53 4.6 °C 3.1 °C 1031.4 hPa Calm     90 % 0 mm 0 W/m2
01:58 4.5 °C 3 °C 1031.4 hPa Calm     90 % 0 mm 0 W/m2
02:03 4.4 °C 2.9 °C 1031.4 hPa Calm     90 % 0 mm 0 W/m2
02:08 4.4 °C 2.9 °C 1031.4 hPa Calm     90 % 0 mm 0 W/m2
02:09 4.3 °C 2.8 °C 1031.4 hPa Calm     90 % 0 mm 0 W/m2
02:14 4.4 °C 3.1 °C 1031.4 hPa Calm     91 % 0 mm 0 W/m2
02:19 4.4 °C 3.1 °C 1031.4 hPa Calm     91 % 0 mm 0 W/m2
02:24 4.4 °C 3.1 °C 1031 hPa Calm     91 % 0 mm 0 W/m2
02:29 4.3 °C 2.9 °C 1031 hPa Calm     91 % 0 mm 0 W/m2
02:34 4.4 °C 3.1 °C 1031 hPa Calm     91 % 0 mm 0 W/m2
02:39 4.3 °C 2.9 °C 1031 hPa Calm     91 % 0 mm 0 W/m2
02:44 4.2 °C 2.9 °C 1031 hPa Calm   1.6 km/h 91 % 0 mm 0 W/m2
02:49 4.2 °C 2.9 °C 1031 hPa Calm   1.6 km/h 91 % 0 mm 0 W/m2
02:54 4.1 °C 2.8 °C 1031 hPa Calm     91 % 0 mm 0 W/m2
02:59 4 °C 2.7 °C 1031 hPa Calm     91 % 0 mm 0 W/m2
03:04 4 °C 2.7 °C 1031 hPa Calm   1.6 km/h 91 % 0 mm 0 W/m2
03:09 3.9 °C 2.6 °C 1031 hPa Calm   1.6 km/h 91 % 0 mm 0 W/m2
03:14 3.9 °C 2.7 °C 1031 hPa Calm   1.6 km/h 92 % 0 mm 0 W/m2
03:19 3.8 °C 2.4 °C 1031 hPa Calm   1.6 km/h 91 % 0 mm 0 W/m2
03:24 3.8 °C 2.6 °C 1031 hPa Calm     92 % 0 mm 0 W/m2
03:29 3.7 °C 2.4 °C 1031 hPa Calm     91 % 0 mm 0 W/m2
03:34 3.7 °C 2.5 °C 1031 hPa Calm     92 % 0 mm 0 W/m2
03:39 3.7 °C 2.5 °C 1031 hPa Calm     92 % 0 mm 0 W/m2
03:45 3.6 °C 2.4 °C 1031 hPa Calm     92 % 0 mm 0 W/m2
03:50 3.5 °C 2.3 °C 1031 hPa Calm     92 % 0 mm 0 W/m2
03:55 3.5 °C 2.3 °C 1031 hPa Calm     92 % 0 mm 0 W/m2
04:00 3.4 °C 2.2 °C 1031 hPa Calm     92 % 0 mm 0 W/m2
04:05 3.4 °C 2.2 °C 1031 hPa Calm     92 % 0 mm 0 W/m2
04:10 3.3 °C 2.1 °C 1030.7 hPa Calm     92 % 0 mm 0 W/m2
04:15 3.3 °C 2.1 °C 1030.7 hPa Calm     92 % 0 mm 0 W/m2
04:20 3.3 °C 2.3 °C 1030.7 hPa Calm   1.6 km/h 93 % 0 mm 0 W/m2
04:25 3.4 °C 2.4 °C 1030.7 hPa Calm   3.2 km/h 93 % 0 mm 0 W/m2
04:30 3.6 °C 2.6 °C 1030.7 hPa Calm   3.2 km/h 93 % 0 mm 0 W/m2
04:35 3.6 °C 2.6 °C 1030.4 hPa Calm   1.6 km/h 93 % 0 mm 0 W/m2
04:40 3.5 °C 2.5 °C 1030.7 hPa Calm   1.6 km/h 93 % 0 mm 0 W/m2
04:45 3.5 °C 2.5 °C 1030.7 hPa Calm   1.6 km/h 93 % 0 mm 0 W/m2
04:50 3.4 °C 2.4 °C 1030.4 hPa Calm   1.6 km/h 93 % 0 mm 0 W/m2
04:55 3.4 °C 2.4 °C 1030.4 hPa Calm   1.6 km/h 93 % 0 mm 0 W/m2
05:00 3.4 °C 2.4 °C 1030.4 hPa Calm   3.2 km/h 93 % 0 mm 0 W/m2
05:05 3.4 °C 2.4 °C 1030.4 hPa Calm   3.2 km/h 93 % 0 mm 0 W/m2
05:10 3.4 °C 2.4 °C 1030.4 hPa Calm   1.6 km/h 93 % 0 mm 0 W/m2
05:15 3.4 °C 2.4 °C 1030.4 hPa Calm   1.6 km/h 93 % 0 mm 0 W/m2
05:20 3.3 °C 2.3 °C 1030.4 hPa Calm   1.6 km/h 93 % 0 mm 0 W/m2
05:25 3.2 °C 2.2 °C 1030.4 hPa Calm   1.6 km/h 93 % 0 mm 0 W/m2
05:30 3.2 °C 2.2 °C 1030.4 hPa Calm   1.6 km/h 93 % 0 mm 0 W/m2
05:35 3.1 °C 2.1 °C 1030.4 hPa Calm   1.6 km/h 93 % 0 mm 0 W/m2
05:40 3 °C 2 °C 1030.7 hPa Calm     93 % 0 mm 0 W/m2
05:45 2.9 °C 1.9 °C 1030.7 hPa Calm     93 % 0 mm 0 W/m2
05:50 2.8 °C 1.8 °C 1030.7 hPa Calm   3.2 km/h 93 % 0 mm 0 W/m2
05:55 2.8 °C 1.8 °C 1030.7 hPa Calm   3.2 km/h 93 % 0 mm 0 W/m2
06:00 2.8 °C 1.8 °C 1030.7 hPa Calm   3.2 km/h 93 % 0 mm 0 W/m2
06:02 2.8 °C 1.8 °C 1031 hPa Calm   3.2 km/h 93 % 0 mm 0 W/m2
06:07 2.8 °C 1.8 °C 1031 hPa Calm   3.2 km/h 93 % 0 mm 0 W/m2
06:12 2.9 °C 2.1 °C 1031 hPa Calm   1.6 km/h 94 % 0 mm 0 W/m2
06:17 2.8 °C 1.8 °C 1031 hPa Calm   3.2 km/h 93 % 0 mm 0 W/m2
06:22 2.7 °C 1.7 °C 1031 hPa Calm   3.2 km/h 93 % 0 mm 0 W/m2
06:27 2.7 °C 1.7 °C 1031 hPa Calm   1.6 km/h 93 % 0 mm 5 W/m2
06:32 2.6 °C 1.6 °C 1031.4 hPa Calm     93 % 0 mm 7 W/m2
06:37 2.5 °C 1.5 °C 1031.4 hPa Calm     93 % 0 mm 11 W/m2
06:38 2.5 °C 1.5 °C 1031.4 hPa Calm     93 % 0 mm 11 W/m2
06:43 2.4 °C 1.4 °C 1031.4 hPa Calm     93 % 0 mm 12 W/m2
06:48 2.4 °C 1.4 °C 1031.4 hPa Calm     93 % 0 mm 16 W/m2
06:53 2.3 °C 1.3 °C 1031.4 hPa Calm     93 % 0 mm 18 W/m2
06:58 2.4 °C 1.6 °C 1031.4 hPa Calm     94 % 0 mm 21 W/m2
07:03 2.4 °C 1.6 °C 1031.4 hPa Calm     94 % 0 mm 30 W/m2
07:08 2.4 °C 1.6 °C 1031.4 hPa Calm     94 % 0 mm 26 W/m2
07:09 2.4 °C 1.6 °C 1031.4 hPa Calm     94 % 0 mm 26 W/m2
07:14 2.5 °C 1.6 °C 1031.4 hPa Calm     94 % 0 mm 30 W/m2
07:19 2.5 °C 1.6 °C 1031.4 hPa Calm     94 % 0 mm 35 W/m2
07:24 2.6 °C 1.7 °C 1031.4 hPa Calm     94 % 0 mm 39 W/m2
07:29 2.7 °C 1.8 °C 1031.4 hPa Calm     94 % 0 mm 46 W/m2
07:34 2.8 °C 1.9 °C 1031.4 hPa Calm     94 % 0 mm 40 W/m2
07:39 2.9 °C 2.2 °C 1031.4 hPa Calm     95 % 0 mm 40 W/m2
07:44 3.1 °C 2.4 °C 1031.4 hPa Calm     95 % 0 mm 42 W/m2
07:49 3.3 °C 2.6 °C 1031.4 hPa Calm     95 % 0 mm 40 W/m2
07:54 3.4 °C 2.7 °C 1031.4 hPa Calm     95 % 0 mm 44 W/m2
07:59 3.7 °C 3 °C 1031.4 hPa Calm     95 % 0 mm 49 W/m2
08:04 3.9 °C 3.3 °C 1031.4 hPa Calm   1.6 km/h 96 % 0 mm 185 W/m2
08:09 4.6 °C 4 °C 1031.4 hPa Calm   4.8 km/h 96 % 0 mm 200 W/m2
08:14 5.2 °C 4.8 °C 1031 hPa West 1.6 km/h 4.8 km/h 97 % 0 mm 216 W/m2
08:19 5.8 °C 5.2 °C 1031 hPa West 1.6 km/h 4.8 km/h 96 % 0 mm 230 W/m2
08:24 6.3 °C 5.7 °C 1031 hPa West 1.6 km/h 8 km/h 96 % 0 mm 241 W/m2
08:29 6.8 °C 6.1 °C 1031 hPa West 3.2 km/h 8 km/h 95 % 0 mm 257 W/m2
08:34 7.2 °C 6.3 °C 1031 hPa West 4.8 km/h 9.7 km/h 94 % 0 mm 272 W/m2
08:39 7.7 °C 6.3 °C 1031 hPa West 4.8 km/h 11.3 km/h 91 % 0 mm 285 W/m2
08:44 8.2 °C 6.3 °C 1031 hPa West 6.4 km/h 16.1 km/h 88 % 0 mm 294 W/m2
08:49 8.6 °C 6.4 °C 1031 hPa West 9.7 km/h 17.7 km/h 86 % 0 mm 311 W/m2
08:54 8.8 °C 6.1 °C 1031 hPa West 11.3 km/h 19.3 km/h 83 % 0 mm 327 W/m2
09:00 8.9 °C 6 °C 1031 hPa West 9.7 km/h 19.3 km/h 82 % 0 mm 339 W/m2
09:05 9.2 °C 6.1 °C 1031 hPa West 8 km/h 16.1 km/h 81 % 0 mm 353 W/m2
09:10 9.3 °C 5.8 °C 1031 hPa WNW 9.7 km/h 19.3 km/h 79 % 0 mm 367 W/m2
09:15 9.3 °C 5.8 °C 1031 hPa WNW 11.3 km/h 19.3 km/h 79 % 0 mm 387 W/m2
09:20 9.5 °C 6.1 °C 1031 hPa WNW 8 km/h 17.7 km/h 79 % 0 mm 397 W/m2
09:25 9.7 °C 6.1 °C 1031.4 hPa WNW 8 km/h 17.7 km/h 78 % 0 mm 406 W/m2
09:30 9.9 °C 6.1 °C 1031.4 hPa WNW 11.3 km/h 20.9 km/h 77 % 0 mm 422 W/m2
09:35 10 °C 6.2 °C 1031 hPa West 9.7 km/h 20.9 km/h 77 % 0 mm 436 W/m2
09:40 9.8 °C 5.9 °C 1031.4 hPa West 11.3 km/h 22.5 km/h 77 % 0 mm 448 W/m2
09:45 9.8 °C 5.9 °C 1031 hPa West 12.9 km/h 22.5 km/h 77 % 0 mm 466 W/m2
09:50 9.6 °C 5.8 °C 1031 hPa West 14.5 km/h 22.5 km/h 77 % 0 mm 475 W/m2
09:55 9.6 °C 5.9 °C 1031.4 hPa West 14.5 km/h 22.5 km/h 78 % 0 mm 483 W/m2
10:00 9.6 °C 5.9 °C 1031 hPa West 14.5 km/h 22.5 km/h 78 % 0 mm 501 W/m2
10:05 9.6 °C 5.9 °C 1031 hPa West 16.1 km/h 22.5 km/h 78 % 0 mm 506 W/m2
10:10 9.6 °C 5.8 °C 1031 hPa West 16.1 km/h 29 km/h 77 % 0 mm 526 W/m2
10:15 9.7 °C 6.1 °C 1031 hPa West 16.1 km/h 29 km/h 78 % 0 mm 547 W/m2
10:20 9.9 °C 6.2 °C 1031 hPa West 14.5 km/h 22.5 km/h 78 % 0 mm 608 W/m2
10:25 10.1 °C 6.2 °C 1031 hPa WSW 14.5 km/h 22.5 km/h 77 % 0 mm 462 W/m2
10:30 10.1 °C 6.2 °C 1031 hPa WSW 14.5 km/h 20.9 km/h 77 % 0 mm 229 W/m2
10:35 10.3 °C 6.4 °C 1031.4 hPa West 12.9 km/h 20.9 km/h 77 % 0 mm 239 W/m2
10:40 10.5 °C 6.3 °C 1031.4 hPa WNW 14.5 km/h 29 km/h 75 % 0 mm 227 W/m2
10:45 10.5 °C 6.1 °C 1031.4 hPa WNW 14.5 km/h 29 km/h 74 % 0 mm 684 W/m2
10:50 10.7 °C 6.3 °C 1031 hPa WNW 16.1 km/h 29 km/h 74 % 0 mm 250 W/m2
10:55 10.5 °C 5.9 °C 1031 hPa WNW 17.7 km/h 29 km/h 73 % 0 mm 332 W/m2
11:00 10.6 °C 6.2 °C 1031 hPa WNW 16.1 km/h 29 km/h 74 % 0 mm 373 W/m2
11:05 10.6 °C 5.9 °C 1031 hPa WNW 16.1 km/h 25.7 km/h 73 % 0 mm 209 W/m2
11:10 10.6 °C 5.9 °C 1031 hPa WNW 16.1 km/h 30.6 km/h 73 % 0 mm 714 W/m2
11:15 10.6 °C 5.9 °C 1031 hPa WNW 16.1 km/h 30.6 km/h 73 % 0 mm 773 W/m2
11:20 10.7 °C 6.3 °C 1031 hPa West 16.1 km/h 24.1 km/h 74 % 0 mm 680 W/m2
11:25 11.1 °C 6.4 °C 1031 hPa West 16.1 km/h 25.7 km/h 73 % 0 mm 680 W/m2
11:30 11.4 °C 6.6 °C 1031 hPa West 16.1 km/h 29 km/h 72 % 0 mm 800 W/m2
11:35 11.7 °C 6.8 °C 1031 hPa West 16.1 km/h 30.6 km/h 72 % 0 mm 919 W/m2
11:40 11.7 °C 6.4 °C 1031 hPa WNW 16.1 km/h 30.6 km/h 70 % 0 mm 369 W/m2
11:45 11.6 °C 6.3 °C 1031 hPa WNW 16.1 km/h 30.6 km/h 70 % 0 mm 290 W/m2
11:50 11.4 °C 6.1 °C 1031 hPa WNW 16.1 km/h 30.6 km/h 70 % 0 mm 318 W/m2
11:55 11.3 °C 6.2 °C 1031 hPa WNW 12.9 km/h 22.5 km/h 71 % 0 mm 403 W/m2
12:00 11.4 °C 6.1 °C 1030.7 hPa NW 14.5 km/h 29 km/h 70 % 0 mm 329 W/m2
12:02 11.4 °C 6.1 °C 1031 hPa WNW 14.5 km/h 29 km/h 70 % 0 mm 302 W/m2
12:07 11.3 °C 6 °C 1031 hPa WNW 16.1 km/h 29 km/h 70 % 0 mm 367 W/m2
12:12 11.5 °C 6.2 °C 1031 hPa WNW 14.5 km/h 29 km/h 70 % 0 mm 501 W/m2
12:17 11.6 °C 6.1 °C 1030.7 hPa West 16.1 km/h 29 km/h 69 % 0 mm 308 W/m2
12:22 11.5 °C 6.2 °C 1030.7 hPa West 17.7 km/h 30.6 km/h 70 % 0 mm 492 W/m2
12:27 11.6 °C 6.3 °C 1030.7 hPa West 17.7 km/h 30.6 km/h 70 % 0 mm 287 W/m2
12:32 11.7 °C 6.2 °C 1030.7 hPa WNW 16.1 km/h 29 km/h 69 % 0 mm 265 W/m2
12:37 11.7 °C 6 °C 1030.7 hPa WNW 16.1 km/h 29 km/h 68 % 0 mm 309 W/m2
12:42 11.8 °C 6.3 °C 1030.7 hPa West 17.7 km/h 24.1 km/h 69 % 0 mm 330 W/m2
12:47 11.9 °C 6.4 °C 1030.7 hPa WNW 16.1 km/h 22.5 km/h 69 % 0 mm 359 W/m2
12:52 11.9 °C 6.2 °C 1030.7 hPa WNW 14.5 km/h 25.7 km/h 68 % 0 mm 338 W/m2
12:57 11.9 °C 6.2 °C 1030.7 hPa WNW 16.1 km/h 25.7 km/h 68 % 0 mm 392 W/m2
13:02 12.1 °C 6.4 °C 1030.4 hPa West 17.7 km/h 33.8 km/h 68 % 0 mm 513 W/m2
13:07 12.4 °C 6.7 °C 1030.4 hPa West 19.3 km/h 33.8 km/h 68 % 0 mm 577 W/m2
13:08 12.5 °C 6.6 °C 1030.4 hPa West 17.7 km/h 33.8 km/h 67 % 0 mm 577 W/m2
13:13 12.7 °C 6.7 °C 1030.4 hPa WNW 16.1 km/h 30.6 km/h 67 % 0 mm 364 W/m2
13:18 12.7 °C 6.7 °C 1030.4 hPa NW 14.5 km/h 24.1 km/h 67 % 0 mm 374 W/m2
13:23 12.7 °C 6.5 °C 1030.4 hPa WNW 14.5 km/h 24.1 km/h 66 % 0 mm 401 W/m2
13:28 12.6 °C 6.4 °C 1030.4 hPa WNW 16.1 km/h 29 km/h 66 % 0 mm 334 W/m2
13:33 12.5 °C 6.6 °C 1030 hPa WNW 17.7 km/h 29 km/h 67 % 0 mm 726 W/m2
13:38 12.7 °C 6.5 °C 1030 hPa WNW 17.7 km/h 25.7 km/h 66 % 0 mm 394 W/m2
13:43 12.5 °C 6.1 °C 1030 hPa WNW 17.7 km/h 35.4 km/h 65 % 0 mm 381 W/m2
13:48 12.4 °C 6.2 °C 1030 hPa WNW 19.3 km/h 35.4 km/h 66 % 0 mm 381 W/m2
13:54 12.4 °C 6.2 °C 1030 hPa WNW 17.7 km/h 35.4 km/h 66 % 0 mm 292 W/m2
13:59 12.4 °C 6 °C 1030 hPa WNW 19.3 km/h 35.4 km/h 65 % 0 mm 431 W/m2
14:04 12.4 °C 6 °C 1029.7 hPa West 19.3 km/h 30.6 km/h 65 % 0 mm 264 W/m2
14:09 12.3 °C 6.3 °C 1029.7 hPa West 17.7 km/h 30.6 km/h 67 % 0 mm 388 W/m2
14:14 12.3 °C 6.3 °C 1029.7 hPa WNW 16.1 km/h 30.6 km/h 67 % 0 mm 265 W/m2
14:19 12.2 °C 6.2 °C 1029.7 hPa WNW 16.1 km/h 30.6 km/h 67 % 0 mm 290 W/m2
14:24 12.1 °C 6.4 °C 1029.7 hPa WNW 16.1 km/h 33.8 km/h 68 % 0 mm 264 W/m2
14:29 11.9 °C 6.2 °C 1029.7 hPa WNW 17.7 km/h 33.8 km/h 68 % 0 mm 294 W/m2
14:34 11.9 °C 6.2 °C 1029.7 hPa WNW 17.7 km/h 32.2 km/h 68 % 0 mm 294 W/m2
14:39 11.9 °C 6.2 °C 1029.7 hPa WNW 16.1 km/h 25.7 km/h 68 % 0 mm 346 W/m2
14:44 12.1 °C 6.4 °C 1029.7 hPa WNW 14.5 km/h 30.6 km/h 68 % 0 mm 274 W/m2
14:49 12.1 °C 6.4 °C 1029.7 hPa WNW 16.1 km/h 30.6 km/h 68 % 0 mm 285 W/m2
14:54 11.9 °C 5.9 °C 1029.7 hPa WNW 16.1 km/h 29 km/h 67 % 0 mm 207 W/m2
14:59 11.8 °C 5.9 °C 1029.7 hPa WNW 16.1 km/h 30.6 km/h 67 % 0 mm 230 W/m2
15:04 11.8 °C 6.1 °C 1029.3 hPa WNW 14.5 km/h 30.6 km/h 68 % 0 mm 301 W/m2
15:09 12 °C 6.3 °C 1029.3 hPa WNW 12.9 km/h 22.5 km/h 68 % 0 mm 253 W/m2
15:14 12 °C 6.1 °C 1029.3 hPa WNW 14.5 km/h 24.1 km/h 67 % 0 mm 232 W/m2
15:19 11.9 °C 5.9 °C 1029.3 hPa WNW 17.7 km/h 30.6 km/h 67 % 0 mm 248 W/m2
15:24 11.9 °C 5.9 °C 1029.3 hPa WNW 17.7 km/h 30.6 km/h 67 % 0 mm 232 W/m2
15:29 11.8 °C 5.9 °C 1029.3 hPa WNW 16.1 km/h 29 km/h 67 % 0 mm 218 W/m2
15:34 11.8 °C 6.1 °C 1029.3 hPa WNW 14.5 km/h 29 km/h 68 % 0 mm 301 W/m2
15:39 11.9 °C 5.9 °C 1029.3 hPa WNW 16.1 km/h 29 km/h 67 % 0 mm 691 W/m2
15:44 12.1 °C 6.2 °C 1029 hPa West 17.7 km/h 30.6 km/h 67 % 0 mm 642 W/m2
15:49 12.1 °C 5.9 °C 1029 hPa WNW 19.3 km/h 33.8 km/h 66 % 0 mm 232 W/m2
15:54 12.2 °C 6.1 °C 1029 hPa WNW 17.7 km/h 33.8 km/h 66 % 0 mm 555 W/m2
15:59 12.4 °C 6.2 °C 1029 hPa WNW 17.7 km/h 33.8 km/h 66 % 0 mm 592 W/m2
16:04 12.4 °C 6 °C 1029 hPa West 19.3 km/h 33.8 km/h 65 % 0 mm 202 W/m2
16:09 12.2 °C 6.1 °C 1029 hPa WNW 20.9 km/h 35.4 km/h 66 % 0 mm 279 W/m2
16:14 12.2 °C 6.1 °C 1029 hPa West 22.5 km/h 37 km/h 66 % 0 mm 561 W/m2
16:19 12.2 °C 6.1 °C 1028.7 hPa West 20.9 km/h 37 km/h 66 % 0 mm 573 W/m2
16:24 12.2 °C 6.1 °C 1028.7 hPa West 17.7 km/h 32.2 km/h 66 % 0 mm 183 W/m2
16:29 12.1 °C 5.7 °C 1029 hPa WNW 19.3 km/h 35.4 km/h 65 % 0 mm 325 W/m2
16:34 11.9 °C 5.7 °C 1028.7 hPa WNW 20.9 km/h 35.4 km/h 66 % 0 mm 552 W/m2
16:39 11.8 °C 5.7 °C 1028.7 hPa West 22.5 km/h 38.6 km/h 66 % 0 mm 197 W/m2
16:45 11.6 °C 5.7 °C 1028.7 hPa WNW 20.9 km/h 38.6 km/h 67 % 0 mm 232 W/m2
16:50 11.7 °C 6 °C 1028.7 hPa WNW 17.7 km/h 37 km/h 68 % 0 mm 427 W/m2
16:55 11.8 °C 5.9 °C 1028.7 hPa WNW 17.7 km/h 32.2 km/h 67 % 0 mm 213 W/m2
17:00 11.6 °C 5.7 °C 1028.7 hPa WNW 19.3 km/h 32.2 km/h 67 % 0 mm 438 W/m2
17:05 11.8 °C 5.9 °C 1028.7 hPa WNW 19.3 km/h 30.6 km/h 67 % 0 mm 533 W/m2
17:10 12.1 °C 6.2 °C 1028.3 hPa WNW 16.1 km/h 30.6 km/h 67 % 0 mm 515 W/m2
17:15 12.2 °C 6.1 °C 1028.3 hPa WNW 17.7 km/h 30.6 km/h 66 % 0 mm 429 W/m2
17:20 12.2 °C 6.1 °C 1028.3 hPa WNW 19.3 km/h 32.2 km/h 66 % 0 mm 387 W/m2
17:25 12.1 °C 5.9 °C 1028.3 hPa WNW 17.7 km/h 32.2 km/h 66 % 0 mm 371 W/m2
17:30 12.1 °C 5.9 °C 1028.3 hPa WNW 17.7 km/h 32.2 km/h 66 % 0 mm 366 W/m2
17:35 12.1 °C 5.9 °C 1028.3 hPa WNW 17.7 km/h 30.6 km/h 66 % 0 mm 323 W/m2
17:40 11.8 °C 5.4 °C 1028.3 hPa WNW 19.3 km/h 33.8 km/h 65 % 0 mm 221 W/m2
17:45 11.4 °C 5.5 °C 1028.3 hPa WNW 20.9 km/h 33.8 km/h 67 % 0 mm 197 W/m2
17:50 11.1 °C 5.4 °C 1028.3 hPa WNW 19.3 km/h 33.8 km/h 68 % 0 mm 292 W/m2
17:55 10.9 °C 5.2 °C 1028.3 hPa WNW 17.7 km/h 29 km/h 68 % 0 mm 132 W/m2
18:00 10.8 °C 5.3 °C 1028.3 hPa NW 14.5 km/h 25.7 km/h 69 % 0 mm 107 W/m2
18:05 10.6 °C 5.3 °C 1028.3 hPa WNW 16.1 km/h 25.7 km/h 70 % 0 mm 116 W/m2
18:10 10.5 °C 5.3 °C 1028.3 hPa WNW 19.3 km/h 30.6 km/h 70 % 0 mm 151 W/m2
18:15 10.6 °C 5.6 °C 1028.3 hPa WNW 16.1 km/h 30.6 km/h 71 % 0 mm 244 W/m2
18:20 10.7 °C 5.4 °C 1028.3 hPa WNW 12.9 km/h 30.6 km/h 70 % 0 mm 120 W/m2
18:25 10.6 °C 5.3 °C 1028.3 hPa WNW 16.1 km/h 30.6 km/h 70 % 0 mm 76 W/m2
18:30 10.3 °C 5.3 °C 1028 hPa WNW 17.7 km/h 29 km/h 71 % 0 mm 51 W/m2
18:35 10.1 °C 5.3 °C 1028 hPa WNW 16.1 km/h 30.6 km/h 72 % 0 mm 114 W/m2
18:40 10 °C 5.4 °C 1028 hPa WNW 17.7 km/h 38.6 km/h 73 % 0 mm 40 W/m2
18:45 9.8 °C 5.2 °C 1028 hPa WNW 19.3 km/h 38.6 km/h 73 % 0 mm 35 W/m2
18:50 9.7 °C 5.3 °C 1028.3 hPa WNW 17.7 km/h 33.8 km/h 74 % 0 mm 63 W/m2
18:55 9.7 °C 5.3 °C 1028.3 hPa WNW 14.5 km/h 29 km/h 74 % 0 mm 47 W/m2
19:00 9.6 °C 5.4 °C 1028 hPa WNW 16.1 km/h 29 km/h 75 % 0 mm 40 W/m2
19:05 9.6 °C 5.4 °C 1028.3 hPa West 16.1 km/h 30.6 km/h 75 % 0 mm 39 W/m2
19:10 9.5 °C 5.3 °C 1028.3 hPa WNW 14.5 km/h 30.6 km/h 75 % 0 mm 30 W/m2
19:15 9.4 °C 5.2 °C 1028 hPa WNW 12.9 km/h 25.7 km/h 75 % 0 mm 28 W/m2
19:20 9.3 °C 5.1 °C 1028 hPa WNW 14.5 km/h 30.6 km/h 75 % 0 mm 23 W/m2
19:25 9.2 °C 5 °C 1028.3 hPa WNW 17.7 km/h 32.2 km/h 75 % 0 mm 16 W/m2
19:30 9.2 °C 5.2 °C 1028.3 hPa WNW 17.7 km/h 32.2 km/h 76 % 0 mm 11 W/m2
19:35 9.2 °C 5.2 °C 1028.3 hPa WNW 16.1 km/h 30.6 km/h 76 % 0 mm 11 W/m2
19:40 9.1 °C 5.1 °C 1028.3 hPa WNW 17.7 km/h 32.2 km/h 76 % 0 mm 7 W/m2
19:46 9.1 °C 5.1 °C 1028.3 hPa WNW 14.5 km/h 32.2 km/h 76 % 0 mm 5 W/m2
19:51 9.1 °C 5.1 °C 1028.3 hPa WNW 12.9 km/h 24.1 km/h 76 % 0 mm 5 W/m2
19:56 9 °C 5 °C 1028.3 hPa WNW 16.1 km/h 30.6 km/h 76 % 0 mm 0 W/m2
20:01 9 °C 5.2 °C 1028.3 hPa WNW 16.1 km/h 30.6 km/h 77 % 0 mm 0 W/m2
20:06 9 °C 5.2 °C 1028.3 hPa WNW 12.9 km/h 20.9 km/h 77 % 0 mm 0 W/m2
20:11 9.1 °C 5.3 °C 1028.7 hPa WNW 9.7 km/h 20.9 km/h 77 % 0 mm 0 W/m2
20:16 9 °C 5.2 °C 1028.7 hPa WNW 11.3 km/h 22.5 km/h 77 % 0 mm 0 W/m2
20:21 8.9 °C 5.1 °C 1028.7 hPa WNW 14.5 km/h 22.5 km/h 77 % 0 mm 0 W/m2
20:26 8.9 °C 5.1 °C 1028.7 hPa NW 14.5 km/h 25.7 km/h 77 % 0 mm 0 W/m2
20:31 8.9 °C 5.3 °C 1029 hPa NW 12.9 km/h 25.7 km/h 78 % 0 mm 0 W/m2
20:36 8.9 °C 5.3 °C 1028.7 hPa WNW 12.9 km/h 25.7 km/h 78 % 0 mm 0 W/m2
20:41 8.9 °C 5.3 °C 1028.7 hPa WNW 12.9 km/h 25.7 km/h 78 % 0 mm 0 W/m2
20:46 8.9 °C 5.3 °C 1029 hPa WNW 11.3 km/h 22.5 km/h 78 % 0 mm 0 W/m2
20:51 8.9 °C 5.3 °C 1029 hPa WNW 12.9 km/h 22.5 km/h 78 % 0 mm 0 W/m2
20:56 8.9 °C 5.3 °C 1029 hPa WNW 11.3 km/h 22.5 km/h 78 % 0 mm 0 W/m2
21:01 8.9 °C 5.3 °C 1029 hPa WNW 9.7 km/h 22.5 km/h 78 % 0 mm 0 W/m2
21:06 8.9 °C 5.3 °C 1029 hPa WNW 9.7 km/h 19.3 km/h 78 % 0 mm 0 W/m2
21:11 8.9 °C 5.3 °C 1029 hPa WNW 11.3 km/h 25.7 km/h 78 % 0 mm 0 W/m2
21:16 8.8 °C 5.2 °C 1029 hPa NW 9.7 km/h 25.7 km/h 78 % 0 mm 0 W/m2
21:21 8.8 °C 5.2 °C 1029 hPa NW 8 km/h 16.1 km/h 78 % 0 mm 0 W/m2
21:26 8.8 °C 5.3 °C 1029 hPa WNW 9.7 km/h 22.5 km/h 79 % 0 mm 0 W/m2
21:31 8.8 °C 5.3 °C 1029 hPa NW 11.3 km/h 22.5 km/h 79 % 0 mm 0 W/m2
21:36 8.7 °C 5.3 °C 1029 hPa NW 11.3 km/h 20.9 km/h 79 % 0 mm 0 W/m2
21:41 8.6 °C 5.2 °C 1029 hPa WNW 11.3 km/h 24.1 km/h 79 % 0 mm 0 W/m2
21:46 8.6 °C 5.2 °C 1029 hPa WNW 11.3 km/h 24.1 km/h 79 % 0 mm 0 W/m2
21:51 8.5 °C 5.2 °C 1028.7 hPa WNW 9.7 km/h 22.5 km/h 80 % 0 mm 0 W/m2
21:56 8.4 °C 5.2 °C 1029 hPa WNW 12.9 km/h 22.5 km/h 80 % 0 mm 0 W/m2
22:01 8.4 °C 5.2 °C 1028.7 hPa WNW 12.9 km/h 22.5 km/h 80 % 0 mm 0 W/m2
22:06 8.3 °C 5.2 °C 1028.7 hPa WNW 12.9 km/h 22.5 km/h 81 % 0 mm 0 W/m2
22:11 8.2 °C 5.1 °C 1029 hPa WNW 12.9 km/h 22.5 km/h 81 % 0 mm 0 W/m2
22:13 8.2 °C 5.1 °C 1028.7 hPa WNW 14.5 km/h 22.5 km/h 81 % 0 mm 0 W/m2
22:18 8.2 °C 5.1 °C 1029 hPa WNW 12.9 km/h 20.9 km/h 81 % 0 mm 0 W/m2
22:19 8.1 °C 5.1 °C 1028.7 hPa WNW 12.9 km/h 20.9 km/h 81 % 0 mm 0 W/m2
22:24 8.1 °C 5.2 °C 1028.7 hPa WNW 12.9 km/h 19.3 km/h 82 % 0 mm 0 W/m2
22:29 8 °C 5.1 °C 1029 hPa WNW 11.3 km/h 17.7 km/h 82 % 0 mm 0 W/m2
22:34 7.9 °C 5 °C 1029 hPa WNW 11.3 km/h 16.1 km/h 82 % 0 mm 0 W/m2
22:39 7.8 °C 5.1 °C 1028.7 hPa WNW 11.3 km/h 20.9 km/h 83 % 0 mm 0 W/m2
22:44 7.8 °C 5.1 °C 1029 hPa WNW 9.7 km/h 20.9 km/h 83 % 0 mm 0 W/m2
22:49 7.7 °C 5 °C 1028.7 hPa WNW 8 km/h 16.1 km/h 83 % 0 mm 0 W/m2
22:54 7.6 °C 4.9 °C 1028.7 hPa WNW 6.4 km/h 14.5 km/h 83 % 0 mm 0 W/m2
22:59 7.5 °C 4.8 °C 1028.7 hPa WNW 6.4 km/h 14.5 km/h 83 % 0 mm 0 W/m2
23:04 7.4 °C 4.7 °C 1028.7 hPa WNW 4.8 km/h 11.3 km/h 83 % 0 mm 0 W/m2
23:09 7.3 °C 4.8 °C 1028.7 hPa WNW 3.2 km/h 11.3 km/h 84 % 0 mm 0 W/m2
23:14 7.2 °C 4.7 °C 1028.7 hPa WNW 1.6 km/h 6.4 km/h 84 % 0 mm 0 W/m2
23:19 7.1 °C 4.6 °C 1028.7 hPa WNW 3.2 km/h 8 km/h 84 % 0 mm 0 W/m2
23:24 7 °C 4.7 °C 1028.7 hPa WNW 3.2 km/h 8 km/h 85 % 0 mm 0 W/m2
23:29 6.9 °C 4.6 °C 1028.7 hPa West 3.2 km/h 8 km/h 85 % 0 mm 0 W/m2
23:34 6.8 °C 4.4 °C 1028.7 hPa West 3.2 km/h 8 km/h 85 % 0 mm 0 W/m2
23:39 6.7 °C 4.3 °C 1028.7 hPa West 3.2 km/h 6.4 km/h 85 % 0 mm 0 W/m2
23:44 6.6 °C 4.3 °C 1028.7 hPa West 1.6 km/h 6.4 km/h 85 % 0 mm 0 W/m2
23:49 6.4 °C 4.2 °C 1028.3 hPa West 1.6 km/h 6.4 km/h 86 % 0 mm 0 W/m2
23:54 6.3 °C 4.1 °C 1028.7 hPa WNW 3.2 km/h 6.4 km/h 86 % 0 mm 0 W/m2
Delerius-Weather
Compliments of Weather Underground - 2.25 mb

Data updates at regular intervals.